createdAt,value
2019-01-10T00:01:51.060Z,2.40
2019-01-10T00:04:32.607Z,3.07
2019-01-10T00:07:21.800Z,1.97
2019-01-10T00:13:26.973Z,2.70
2019-01-10T00:16:16.067Z,2.97
2019-01-10T00:19:05.188Z,2.23
2019-01-10T00:21:54.303Z,2.40
2019-01-10T00:24:43.673Z,2.40
2019-01-10T00:27:32.801Z,2.27
2019-01-10T00:30:22.129Z,2.70
2019-01-10T00:33:11.513Z,2.33
2019-01-10T00:36:00.893Z,2.13
2019-01-10T00:38:49.977Z,2.13
2019-01-10T00:41:39.090Z,2.47
2019-01-10T00:44:28.163Z,2.50
2019-01-10T00:53:29.396Z,2.20
2019-01-10T00:56:18.522Z,2.50
2019-01-10T00:59:07.946Z,2.47
2019-01-10T01:01:56.993Z,2.20
2019-01-10T01:04:46.152Z,2.67
2019-01-10T01:07:35.338Z,2.50
2019-01-10T01:11:05.482Z,1.93
2019-01-10T01:13:54.905Z,2.30
2019-01-10T01:16:43.986Z,2.33
2019-01-10T01:19:33.098Z,2.30
2019-01-10T01:22:22.198Z,2.00
2019-01-10T01:25:12.146Z,2.07
2019-01-10T01:28:02.089Z,2.00
2019-01-10T01:30:51.223Z,1.97
2019-01-10T01:33:41.208Z,1.70
2019-01-10T01:36:49.846Z,2.53
2019-01-10T01:39:39.007Z,2.27
2019-01-10T01:42:28.115Z,1.90
2019-01-10T01:45:57.398Z,2.50
2019-01-10T01:48:46.528Z,1.77
2019-01-10T01:51:35.603Z,2.27
2019-01-10T01:54:25.051Z,1.83
2019-01-10T01:57:14.466Z,2.13
2019-01-10T02:03:19.052Z,2.00
2019-01-10T02:06:08.571Z,1.77
2019-01-10T02:08:57.952Z,1.70
2019-01-10T02:11:47.076Z,1.67
2019-01-10T02:14:36.168Z,2.00
2019-01-10T02:17:25.844Z,2.07
2019-01-10T02:20:15.491Z,1.70
2019-01-10T02:23:04.707Z,1.50
2019-01-10T02:25:53.828Z,1.90
2019-01-10T02:28:42.968Z,1.90
2019-01-10T02:31:32.279Z,1.80
2019-01-10T02:34:21.432Z,1.87
2019-01-10T02:37:10.780Z,1.57
2019-01-10T02:39:59.880Z,1.73
2019-01-10T02:42:49.081Z,1.80
2019-01-10T02:45:38.272Z,1.63
2019-01-10T02:48:27.680Z,1.90
2019-01-10T02:51:16.820Z,1.93
2019-01-10T02:54:06.213Z,1.60
2019-01-10T02:56:55.333Z,1.60
2019-01-10T02:59:44.412Z,2.33
2019-01-10T03:02:33.565Z,2.20
2019-01-10T03:05:15.116Z,2.07
2019-01-10T03:08:04.322Z,2.07
2019-01-10T03:10:53.657Z,2.13
2019-01-10T03:16:37.196Z,2.90
2019-01-10T03:19:26.878Z,2.27
2019-01-10T03:22:16.098Z,1.87
2019-01-10T03:25:05.777Z,2.13
2019-01-10T03:27:54.922Z,1.97
2019-01-10T03:30:44.064Z,2.70
2019-01-10T03:33:33.436Z,2.03
2019-01-10T03:36:22.587Z,2.03
2019-01-10T03:39:12.062Z,1.97
2019-01-10T03:42:01.743Z,1.47
2019-01-10T03:44:50.869Z,1.43
2019-01-10T03:47:20.754Z,1.53
2019-01-10T03:49:50.600Z,1.60
2019-01-10T03:52:20.487Z,2.20
2019-01-10T03:54:50.296Z,1.67
2019-01-10T03:57:39.751Z,1.40
2019-01-10T04:00:28.835Z,1.50
2019-01-10T04:03:17.958Z,1.30
2019-01-10T04:06:00.360Z,2.20
2019-01-10T04:08:49.571Z,1.27
2019-01-10T04:11:38.649Z,1.30
2019-01-10T04:14:27.817Z,1.40
2019-01-10T04:17:16.898Z,1.60
2019-01-10T04:20:25.470Z,1.53
2019-01-10T04:23:14.566Z,1.17
2019-01-10T04:26:03.703Z,1.20
2019-01-10T04:28:52.848Z,1.20
2019-01-10T04:31:42.538Z,2.10
2019-01-10T04:34:31.708Z,1.00
2019-01-10T04:37:20.806Z,1.27
2019-01-10T04:40:31.181Z,1.40
2019-01-10T04:43:20.358Z,1.40
2019-01-10T04:46:09.502Z,1.40
2019-01-10T04:48:58.930Z,1.60
2019-01-10T04:51:48.283Z,2.10
2019-01-10T04:54:38.328Z,2.03
2019-01-10T04:57:28.655Z,1.67
2019-01-10T05:00:20.770Z,1.50
2019-01-10T05:03:09.918Z,1.40
2019-01-10T05:05:52.387Z,1.27
2019-01-10T05:08:41.755Z,1.60
2019-01-10T05:11:30.846Z,1.47
2019-01-10T05:14:20.416Z,2.10
2019-01-10T05:17:09.581Z,1.57
2019-01-10T05:19:58.698Z,1.50
2019-01-10T05:26:02.940Z,1.40
2019-01-10T05:28:52.073Z,2.13
2019-01-10T05:31:41.138Z,2.60
2019-01-10T05:34:30.245Z,1.50
2019-01-10T05:37:19.909Z,1.60
2019-01-10T05:40:10.416Z,1.43
2019-01-10T05:42:59.539Z,1.83
2019-01-10T05:45:41.754Z,2.00
2019-01-10T05:48:30.868Z,2.00
2019-01-10T05:51:19.980Z,1.10
2019-01-10T05:54:09.413Z,1.47
2019-01-10T05:56:58.519Z,1.80
2019-01-10T05:59:47.619Z,1.67
2019-01-10T06:02:36.710Z,1.80
2019-01-10T06:05:25.843Z,1.80
2019-01-10T06:08:14.967Z,1.57
2019-01-10T06:11:04.422Z,1.77
2019-01-10T06:13:53.552Z,1.57
2019-01-10T06:16:42.664Z,1.70
2019-01-10T06:19:32.020Z,1.70
2019-01-10T06:22:21.136Z,2.00
2019-01-10T06:25:10.329Z,1.90
2019-01-10T06:27:59.749Z,1.60
2019-01-10T06:30:49.193Z,2.30
2019-01-10T06:33:38.566Z,2.43
2019-01-10T06:36:27.649Z,2.10
2019-01-10T06:39:18.517Z,2.50
2019-01-10T06:42:07.934Z,2.20
2019-01-10T06:44:49.860Z,2.27
2019-01-10T06:47:38.968Z,1.90
2019-01-10T06:50:28.081Z,2.37
2019-01-10T06:53:17.169Z,2.13
2019-01-10T06:56:06.352Z,2.03
2019-01-10T06:58:55.535Z,2.33
2019-01-10T07:01:44.752Z,3.13
2019-01-10T07:04:33.908Z,3.47
2019-01-10T07:07:23.027Z,3.80
2019-01-10T07:10:15.521Z,3.53
2019-01-10T07:13:05.064Z,3.20
2019-01-10T07:15:54.190Z,3.03
2019-01-10T07:18:43.267Z,3.20
2019-01-10T07:22:13.165Z,3.60
2019-01-10T07:25:02.324Z,3.80
2019-01-10T07:27:51.526Z,3.57
2019-01-10T07:30:40.610Z,3.80
2019-01-10T07:33:29.768Z,3.40
2019-01-10T07:36:19.116Z,4.20
2019-01-10T07:39:09.282Z,4.40
2019-01-10T07:41:58.360Z,4.40
2019-01-10T07:44:47.773Z,4.40
2019-01-10T07:47:47.371Z,4.47
2019-01-10T07:50:37.409Z,4.20
2019-01-10T07:53:26.532Z,3.83
2019-01-10T07:56:15.663Z,4.10
2019-01-10T07:59:04.794Z,4.37
2019-01-10T08:01:53.925Z,4.60
2019-01-10T08:04:43.051Z,4.73
2019-01-10T08:07:32.150Z,4.43
2019-01-10T08:10:21.238Z,3.63
2019-01-10T08:13:10.416Z,3.13
2019-01-10T08:15:59.559Z,3.40
2019-01-10T08:18:48.648Z,3.80
2019-01-10T08:21:37.743Z,2.93
2019-01-10T08:24:26.988Z,2.87
2019-01-10T08:27:16.128Z,2.40
2019-01-10T08:30:45.970Z,3.00
2019-01-10T08:33:35.136Z,2.60
2019-01-10T08:36:32.432Z,2.80
2019-01-10T08:39:15.379Z,3.00
2019-01-10T08:42:04.587Z,2.87
2019-01-10T08:44:46.729Z,2.90
2019-01-10T08:47:36.115Z,2.63
2019-01-10T08:50:44.433Z,2.70
2019-01-10T08:53:34.111Z,2.57
2019-01-10T08:56:23.241Z,3.30
2019-01-10T08:59:12.365Z,3.23
2019-01-10T09:02:01.711Z,3.60
2019-01-10T09:04:50.829Z,2.77
2019-01-10T09:07:39.916Z,2.73
2019-01-10T09:10:31.021Z,3.03
2019-01-10T09:13:20.348Z,3.00
2019-01-10T09:16:09.478Z,3.40
2019-01-10T09:18:58.555Z,3.37
2019-01-10T09:21:47.681Z,3.20
2019-01-10T09:24:36.777Z,3.10
2019-01-10T09:27:25.909Z,3.07
2019-01-10T09:30:17.195Z,3.10
2019-01-10T09:33:06.336Z,2.83
2019-01-10T09:35:55.455Z,2.90
2019-01-10T09:38:44.854Z,2.60
2019-01-10T09:41:34.238Z,2.80
2019-01-10T09:44:23.468Z,2.13
2019-01-10T09:47:05.461Z,2.60
2019-01-10T09:49:54.563Z,2.87
2019-01-10T09:52:43.745Z,2.17
2019-01-10T09:55:32.843Z,2.43
2019-01-10T09:58:21.965Z,1.83
2019-01-10T10:01:11.448Z,1.53
2019-01-10T10:04:00.559Z,1.93
2019-01-10T10:06:49.959Z,2.10
2019-01-10T10:09:39.090Z,1.90
2019-01-10T10:12:28.244Z,1.87
2019-01-10T10:15:17.926Z,1.90
2019-01-10T10:18:07.028Z,1.93
2019-01-10T10:20:56.201Z,1.40
2019-01-10T10:23:45.282Z,1.50
2019-01-10T10:26:34.646Z,1.30
2019-01-10T10:29:24.106Z,1.23
2019-01-10T10:32:13.300Z,1.27
2019-01-10T10:35:10.082Z,1.10
2019-01-10T10:37:59.632Z,0.90
2019-01-10T10:40:49.485Z,1.20
2019-01-10T10:43:38.583Z,0.70
2019-01-10T10:46:20.557Z,0.77
2019-01-10T10:49:02.858Z,1.37
2019-01-10T10:51:51.967Z,0.70
2019-01-10T10:54:41.123Z,0.93
2019-01-10T10:57:30.854Z,0.60
2019-01-10T11:01:00.727Z,0.70
2019-01-10T11:03:50.136Z,0.60
2019-01-10T11:06:39.264Z,0.53
2019-01-10T11:09:28.718Z,0.70
2019-01-10T11:12:17.835Z,0.80
2019-01-10T11:15:07.704Z,1.17
2019-01-10T11:17:56.830Z,0.80
2019-01-10T11:20:46.021Z,1.70
2019-01-10T11:23:35.126Z,0.80
2019-01-10T11:26:24.504Z,1.23
2019-01-10T11:29:13.584Z,1.60
2019-01-10T11:32:02.939Z,1.70
2019-01-10T11:34:52.088Z,1.47
2019-01-10T11:37:41.572Z,1.17
2019-01-10T11:40:30.677Z,0.93
2019-01-10T11:43:19.801Z,1.13
2019-01-10T11:46:09.265Z,1.10
2019-01-10T11:48:51.288Z,1.57
2019-01-10T11:51:40.640Z,1.67
2019-01-10T11:54:29.837Z,1.63
2019-01-10T11:57:19.279Z,1.70
2019-01-10T12:00:12.441Z,2.03
2019-01-10T12:03:02.394Z,1.70
2019-01-10T12:05:53.320Z,1.80
2019-01-10T12:08:44.754Z,1.20
2019-01-10T12:11:34.226Z,1.47
2019-01-10T12:14:23.897Z,1.67
2019-01-10T12:17:12.994Z,1.20
2019-01-10T12:20:02.432Z,1.93
2019-01-10T12:22:51.714Z,2.30
2019-01-10T12:25:40.815Z,1.23
2019-01-10T12:28:29.951Z,2.03
2019-01-10T12:31:19.137Z,1.77
2019-01-10T12:34:08.571Z,1.60
2019-01-10T12:37:00.432Z,2.27
2019-01-10T12:39:48.841Z,1.87
2019-01-10T12:42:37.936Z,1.63
2019-01-10T12:45:27.131Z,2.10
2019-01-10T12:48:09.816Z,1.60
2019-01-10T12:50:59.617Z,2.00
2019-01-10T12:53:48.734Z,2.10
2019-01-10T12:56:38.423Z,2.23
2019-01-10T12:59:28.579Z,1.80
2019-01-10T13:02:19.224Z,2.30
2019-01-10T13:05:08.390Z,2.13
2019-01-10T13:08:03.462Z,2.10
2019-01-10T13:10:48.413Z,1.83
2019-01-10T13:13:37.807Z,1.93
2019-01-10T13:16:27.399Z,1.40
2019-01-10T13:19:16.838Z,1.07
2019-01-10T13:22:06.071Z,1.37
2019-01-10T13:24:55.818Z,0.77
2019-01-10T13:27:44.995Z,0.73
2019-01-10T13:30:34.164Z,0.97
2019-01-10T13:33:23.287Z,0.70
2019-01-10T13:36:12.432Z,1.00
2019-01-10T13:39:01.855Z,1.17
2019-01-10T13:41:50.973Z,1.53
2019-01-10T13:44:40.331Z,1.47
2019-01-10T13:47:29.436Z,1.50
2019-01-10T13:50:12.381Z,1.83
2019-01-10T13:53:01.508Z,2.13
2019-01-10T13:55:50.631Z,2.00
2019-01-10T13:58:39.741Z,2.57
2019-01-10T14:01:28.827Z,2.67
2019-01-10T14:04:17.956Z,2.20
2019-01-10T14:07:07.130Z,2.40
2019-01-10T14:09:56.228Z,2.13
2019-01-10T14:12:45.419Z,1.97
2019-01-10T14:16:14.963Z,1.90
2019-01-10T14:19:04.336Z,1.33
2019-01-10T14:21:53.432Z,1.77
2019-01-10T14:24:42.565Z,1.10
2019-01-10T14:27:31.928Z,1.17
2019-01-10T14:30:40.575Z,1.50
2019-01-10T14:36:37.736Z,1.43
2019-01-10T14:39:27.077Z,1.50
2019-01-10T14:42:16.206Z,1.63
2019-01-10T14:45:45.404Z,1.90
2019-01-10T14:48:25.609Z,1.33
2019-01-10T14:51:14.715Z,1.30
2019-01-10T14:54:03.847Z,1.23
2019-01-10T14:56:57.956Z,1.20
2019-01-10T14:59:44.490Z,1.30
2019-01-10T15:02:33.676Z,1.17
2019-01-10T15:05:22.903Z,1.57
2019-01-10T15:08:12.019Z,1.27
2019-01-10T15:11:01.109Z,1.40
2019-01-10T15:13:50.233Z,1.70
2019-01-10T15:16:39.694Z,1.53
2019-01-10T15:19:28.870Z,1.00
2019-01-10T15:22:17.995Z,1.13
2019-01-10T15:25:26.240Z,2.73
2019-01-10T15:28:15.306Z,4.27
2019-01-10T15:31:04.777Z,3.50
2019-01-10T15:33:53.885Z,3.00
2019-01-10T15:36:43.008Z,2.93
2019-01-10T15:39:32.120Z,2.77
2019-01-10T15:42:21.298Z,2.03
2019-01-10T15:45:29.806Z,2.57
2019-01-10T15:48:18.928Z,2.57
2019-01-10T15:51:01.110Z,1.90
2019-01-10T15:53:50.219Z,2.03
2019-01-10T15:56:39.312Z,2.00
2019-01-10T15:59:28.411Z,1.30
2019-01-10T16:02:17.533Z,1.83
2019-01-10T16:08:06.378Z,1.53
2019-01-10T16:10:55.494Z,1.77
2019-01-10T16:13:44.622Z,2.33
2019-01-10T16:16:33.835Z,1.23
2019-01-10T16:19:23.242Z,2.30
2019-01-10T16:22:12.718Z,1.73
2019-01-10T16:25:02.168Z,2.20
2019-01-10T16:27:51.555Z,1.93
2019-01-10T16:30:40.919Z,1.17
2019-01-10T16:33:30.262Z,1.77
2019-01-10T16:36:19.381Z,1.77
2019-01-10T16:39:49.000Z,1.40
2019-01-10T16:42:38.556Z,2.03
2019-01-10T16:45:30.152Z,2.00
2019-01-10T16:48:19.269Z,2.07
2019-01-10T16:51:00.091Z,2.47
2019-01-10T16:53:49.485Z,2.17
2019-01-10T16:56:38.840Z,3.00
2019-01-10T16:59:28.211Z,2.33
2019-01-10T17:02:18.032Z,2.60
2019-01-10T17:05:07.342Z,2.43
2019-01-10T17:07:56.754Z,2.80
2019-01-10T17:10:46.255Z,2.90
2019-01-10T17:13:37.211Z,2.90
2019-01-10T17:16:50.122Z,3.43
2019-01-10T17:19:18.171Z,3.10
2019-01-10T17:22:07.738Z,3.77
2019-01-10T17:24:57.157Z,2.50
2019-01-10T17:27:46.302Z,2.77
2019-01-10T17:30:35.376Z,1.67
2019-01-10T17:33:24.466Z,2.43
2019-01-10T17:36:18.447Z,2.70
2019-01-10T17:39:25.381Z,2.77
2019-01-10T17:45:13.885Z,2.10
2019-01-10T17:51:32.352Z,1.90
2019-01-10T17:54:21.462Z,1.80
2019-01-10T17:57:30.113Z,2.10
2019-01-10T18:00:21.942Z,2.07
2019-01-10T18:03:11.957Z,1.60
2019-01-10T18:06:01.087Z,1.83
2019-01-10T18:08:50.178Z,1.83
2019-01-10T18:11:39.299Z,2.20
2019-01-10T18:14:28.796Z,1.93
2019-01-10T18:17:17.962Z,1.80
2019-01-10T18:20:48.243Z,1.97
2019-01-10T18:23:37.375Z,1.90
2019-01-10T18:26:26.480Z,2.30
2019-01-10T18:29:15.587Z,2.20
2019-01-10T18:32:04.814Z,1.90
2019-01-10T18:37:44.443Z,2.10
2019-01-10T18:40:15.940Z,2.33
2019-01-10T18:42:46.588Z,2.37
2019-01-10T18:45:23.853Z,2.70
2019-01-10T18:47:57.182Z,3.37
2019-01-10T18:50:26.035Z,3.73
2019-01-10T18:52:56.187Z,2.90
2019-01-10T18:55:26.349Z,2.63
2019-01-10T18:57:56.915Z,2.57
2019-01-10T19:00:32.718Z,2.90
2019-01-10T19:03:03.055Z,2.57
2019-01-10T19:05:33.358Z,2.30
2019-01-10T19:08:04.564Z,2.73
2019-01-10T19:10:34.828Z,2.57
2019-01-10T19:13:04.877Z,2.10
2019-01-10T19:15:34.742Z,2.70
2019-01-10T19:18:04.769Z,2.50
2019-01-10T19:20:37.756Z,2.60
2019-01-10T19:23:07.942Z,3.00
2019-01-10T19:25:38.673Z,2.77
2019-01-10T19:28:13.390Z,3.33
2019-01-10T19:30:43.847Z,2.53
2019-01-10T19:33:17.225Z,2.20
2019-01-10T19:35:47.857Z,2.70
2019-01-10T19:38:18.462Z,2.33
2019-01-10T19:40:49.497Z,2.30
2019-01-10T19:43:19.744Z,2.30
2019-01-10T19:45:50.389Z,3.40
2019-01-10T19:48:21.235Z,2.60
2019-01-10T19:50:54.163Z,2.50
2019-01-10T19:53:25.676Z,2.87
2019-01-10T19:55:56.055Z,2.83
2019-01-10T19:58:25.939Z,3.03
2019-01-10T20:00:57.940Z,2.77
2019-01-10T20:03:27.856Z,2.40
2019-01-10T20:05:57.719Z,3.03
2019-01-10T20:08:27.558Z,3.23
2019-01-10T20:10:57.419Z,3.53
2019-01-10T20:13:27.299Z,3.20
2019-01-10T20:15:57.262Z,3.23
2019-01-10T20:18:27.122Z,3.47
2019-01-10T20:20:57.539Z,3.50
2019-01-10T20:23:32.134Z,3.17
2019-01-10T20:26:02.032Z,3.70
2019-01-10T20:28:31.870Z,3.53
2019-01-10T20:31:01.771Z,4.10
2019-01-10T20:33:32.054Z,3.47
2019-01-10T20:36:02.001Z,3.30
2019-01-10T20:38:31.863Z,3.80
2019-01-10T20:41:01.832Z,4.10
2019-01-10T20:43:31.971Z,4.13
2019-01-10T20:46:01.914Z,4.33
2019-01-10T20:48:32.892Z,4.00
2019-01-10T20:51:02.852Z,5.60
2019-01-10T20:53:32.734Z,4.33
2019-01-10T20:56:02.776Z,4.87
2019-01-10T20:58:32.660Z,5.80
2019-01-10T21:01:02.958Z,5.10
2019-01-10T21:03:32.892Z,5.33
2019-01-10T21:06:03.388Z,6.10
2019-01-10T21:08:33.349Z,6.57
2019-01-10T21:11:03.194Z,6.20
2019-01-10T21:13:33.724Z,7.00
2019-01-10T21:16:03.601Z,7.20
2019-01-10T21:18:33.548Z,7.67
2019-01-10T21:21:04.015Z,7.50
2019-01-10T21:23:34.013Z,9.10
2019-01-10T21:26:04.042Z,9.03
2019-01-10T21:28:33.958Z,9.80
2019-01-10T21:31:04.002Z,10.07
2019-01-10T21:33:33.958Z,10.40
2019-01-10T21:36:03.823Z,10.90
2019-01-10T21:38:33.814Z,10.57
2019-01-10T21:41:03.708Z,11.50
2019-01-10T21:43:33.673Z,11.80
2019-01-10T21:46:05.359Z,11.10
2019-01-10T21:48:35.388Z,11.73
2019-01-10T21:51:05.451Z,12.83
2019-01-10T21:53:35.315Z,13.10
2019-01-10T21:56:07.821Z,13.03
2019-01-10T21:58:37.947Z,13.10
2019-01-10T22:01:08.263Z,12.57
2019-01-10T22:03:38.668Z,14.47
2019-01-10T22:06:08.896Z,13.80
2019-01-10T22:08:39.353Z,13.30
2019-01-10T22:11:09.218Z,14.17
2019-01-10T22:13:39.349Z,12.80
2019-01-10T22:16:12.493Z,14.00
2019-01-10T22:18:42.786Z,13.87
2019-01-10T22:21:12.790Z,15.30
2019-01-10T22:23:43.029Z,16.17
2019-01-10T22:26:12.883Z,16.03
2019-01-10T22:28:43.031Z,15.70
2019-01-10T22:31:12.861Z,16.30
2019-01-10T22:33:42.762Z,16.20
2019-01-10T22:36:13.040Z,17.20
2019-01-10T22:38:43.131Z,16.60
2019-01-10T22:41:13.320Z,15.90
2019-01-10T22:43:43.252Z,16.57
2019-01-10T22:46:13.138Z,17.70
2019-01-10T22:48:47.840Z,16.90
2019-01-10T22:51:14.904Z,18.03
2019-01-10T22:53:44.791Z,18.10
2019-01-10T22:56:15.293Z,17.57
2019-01-10T22:58:45.480Z,17.07
2019-01-10T23:01:42.053Z,16.80
2019-01-10T23:04:15.365Z,18.50
2019-01-10T23:06:45.223Z,16.80
2019-01-10T23:09:15.174Z,15.90
2019-01-10T23:11:45.412Z,17.40
2019-01-10T23:14:15.835Z,16.97
2019-01-10T23:16:45.745Z,16.60
2019-01-10T23:19:15.952Z,17.10
2019-01-10T23:21:45.955Z,16.20
2019-01-10T23:24:26.493Z,17.33
2019-01-10T23:26:55.960Z,16.07
2019-01-10T23:29:32.897Z,17.00
2019-01-10T23:32:12.323Z,16.90
2019-01-10T23:34:51.781Z,17.37
2019-01-10T23:37:26.453Z,15.50
2019-01-10T23:39:57.297Z,15.93
2019-01-10T23:42:27.465Z,16.33
2019-01-10T23:44:58.038Z,15.40
2019-01-10T23:47:27.895Z,15.70
2019-01-10T23:49:58.226Z,14.67
2019-01-10T23:52:28.093Z,16.00
2019-01-10T23:54:57.972Z,15.03
2019-01-10T23:57:27.869Z,15.27
2019-01-10T23:59:57.739Z,16.90
